createdAt,value
2018-11-20T00:01:06.257Z,7.67
2018-11-20T00:03:57.801Z,7.37
2018-11-20T00:06:36.003Z,8.13
2018-11-20T00:09:25.317Z,7.10
2018-11-20T00:12:29.516Z,7.67
2018-11-20T00:15:06.363Z,8.37
2018-11-20T00:17:55.368Z,7.83
2018-11-20T00:20:56.230Z,7.60
2018-11-20T00:23:44.117Z,8.50
2018-11-20T00:26:32.436Z,7.80
2018-11-20T00:29:20.234Z,8.43
2018-11-20T00:32:16.580Z,8.47
2018-11-20T00:35:05.395Z,7.60
2018-11-20T00:37:42.841Z,8.73
2018-11-20T00:40:30.718Z,8.33
2018-11-20T00:43:11.760Z,8.63
2018-11-20T00:45:59.583Z,8.30
2018-11-20T00:48:57.275Z,8.27
2018-11-20T00:52:01.415Z,8.67
2018-11-20T00:55:02.891Z,8.27
2018-11-20T00:57:52.018Z,8.80
2018-11-20T01:00:29.041Z,8.47
2018-11-20T01:03:20.949Z,8.50
2018-11-20T01:06:28.155Z,8.37
2018-11-20T01:09:23.019Z,10.33
2018-11-20T01:12:06.579Z,8.70
2018-11-20T01:14:43.391Z,8.40
2018-11-20T01:17:41.277Z,8.83
2018-11-20T01:20:36.547Z,7.80
2018-11-20T01:23:13.899Z,9.37
2018-11-20T01:26:02.911Z,9.13
2018-11-20T01:28:50.483Z,8.40
2018-11-20T01:31:38.629Z,8.60
2018-11-20T01:34:26.377Z,8.53
2018-11-20T01:37:15.579Z,8.43
2018-11-20T01:40:10.519Z,8.17
2018-11-20T01:42:58.503Z,8.83
2018-11-20T01:45:35.308Z,9.17
2018-11-20T01:48:15.386Z,8.67
2018-11-20T01:51:02.687Z,8.67
2018-11-20T01:54:06.773Z,9.07
2018-11-20T01:56:58.660Z,8.80
2018-11-20T01:59:47.044Z,9.37
2018-11-20T02:02:41.772Z,9.53
2018-11-20T02:05:30.844Z,11.70
2018-11-20T02:08:18.408Z,9.57
2018-11-20T02:11:10.490Z,9.77
2018-11-20T02:14:00.284Z,9.77
2018-11-20T02:16:54.696Z,9.77
2018-11-20T02:19:40.785Z,8.53
2018-11-20T02:22:21.422Z,9.83
2018-11-20T02:25:16.826Z,9.60
2018-11-20T02:28:05.845Z,11.83
2018-11-20T02:30:51.722Z,10.53
2018-11-20T02:33:46.503Z,9.23
2018-11-20T02:36:38.863Z,10.40
2018-11-20T02:39:31.654Z,10.47
2018-11-20T02:42:13.264Z,10.00
2018-11-20T02:44:54.879Z,9.60
2018-11-20T02:47:55.675Z,10.03
2018-11-20T02:50:43.469Z,9.80
2018-11-20T02:53:31.113Z,9.93
2018-11-20T02:56:32.179Z,10.80
2018-11-20T02:59:20.034Z,9.70
2018-11-20T03:02:02.695Z,11.13
2018-11-20T03:04:50.165Z,11.23
2018-11-20T03:07:37.713Z,11.73
2018-11-20T03:10:20.716Z,10.87
2018-11-20T03:13:09.732Z,12.73
2018-11-20T03:15:50.683Z,11.70
2018-11-20T03:18:39.453Z,11.80
2018-11-20T03:21:28.527Z,12.43
2018-11-20T03:24:20.628Z,11.87
2018-11-20T03:27:15.623Z,12.83
2018-11-20T03:30:35.956Z,14.20
2018-11-20T03:33:23.333Z,13.23
2018-11-20T03:36:11.131Z,13.93
2018-11-20T03:38:54.482Z,13.43
2018-11-20T03:41:42.260Z,15.00
2018-11-20T03:44:32.765Z,14.70
2018-11-20T03:47:40.156Z,14.87
2018-11-20T03:50:27.172Z,14.20
2018-11-20T03:53:17.087Z,14.40
2018-11-20T03:56:02.997Z,15.77
2018-11-20T03:59:01.108Z,15.70
2018-11-20T04:01:49.617Z,15.53
2018-11-20T04:04:27.079Z,16.97
2018-11-20T04:07:10.324Z,17.43
2018-11-20T04:09:59.350Z,16.33
2018-11-20T04:12:51.137Z,17.53
2018-11-20T04:15:38.967Z,17.00
2018-11-20T04:18:26.864Z,17.40
2018-11-20T04:21:15.868Z,16.93
2018-11-20T04:24:17.008Z,19.87
2018-11-20T04:27:04.644Z,16.67
2018-11-20T04:29:44.636Z,18.53
2018-11-20T04:32:33.666Z,16.80
2018-11-20T04:35:22.212Z,19.00
2018-11-20T04:38:20.170Z,19.77
2018-11-20T04:40:49.271Z,20.90
2018-11-20T04:43:36.908Z,20.70
2018-11-20T04:46:30.262Z,21.00
2018-11-20T04:49:13.897Z,20.27
2018-11-20T04:52:11.842Z,18.90
2018-11-20T04:55:10.317Z,20.23
2018-11-20T04:58:02.461Z,21.37
2018-11-20T05:00:50.577Z,20.57
2018-11-20T05:03:39.590Z,21.67
2018-11-20T05:06:34.374Z,21.53
2018-11-20T05:09:25.182Z,22.87
2018-11-20T05:12:12.828Z,22.73
2018-11-20T05:15:00.476Z,19.23
2018-11-20T05:17:54.873Z,21.23
2018-11-20T05:20:49.698Z,22.57
2018-11-20T05:23:37.246Z,21.40
2018-11-20T05:26:41.896Z,20.60
2018-11-20T05:29:29.406Z,20.43
2018-11-20T05:32:16.703Z,24.03
2018-11-20T05:35:06.089Z,23.40
2018-11-20T05:38:07.262Z,22.60
2018-11-20T05:40:49.952Z,23.90
2018-11-20T05:43:37.637Z,25.30
2018-11-20T05:46:22.127Z,23.97
2018-11-20T05:49:17.352Z,23.37
2018-11-20T05:52:06.362Z,24.00
2018-11-20T05:55:01.966Z,21.60
2018-11-20T06:00:49.352Z,26.77
2018-11-20T06:03:41.354Z,23.73
2018-11-20T06:06:28.831Z,24.90
2018-11-20T06:09:12.685Z,24.70
2018-11-20T06:12:01.712Z,24.20
2018-11-20T06:14:50.692Z,24.87
2018-11-20T06:17:54.890Z,24.03
2018-11-20T06:20:41.161Z,26.90
2018-11-20T06:23:29.947Z,24.87
2018-11-20T06:26:17.835Z,24.83
2018-11-20T06:28:47.018Z,24.20
2018-11-20T06:31:41.927Z,25.40
2018-11-20T06:34:37.003Z,25.87
2018-11-20T06:37:24.852Z,25.63
2018-11-20T06:40:12.346Z,23.47
2018-11-20T06:43:07.588Z,26.93
2018-11-20T06:45:54.983Z,23.07
2018-11-20T06:48:44.683Z,24.63
2018-11-20T06:51:39.487Z,23.83
2018-11-20T06:54:34.630Z,24.10
2018-11-20T06:57:19.216Z,23.37
2018-11-20T07:00:08.497Z,24.10
2018-11-20T07:03:03.489Z,23.33
2018-11-20T07:05:55.432Z,24.20
2018-11-20T07:08:33.454Z,23.60
2018-11-20T07:11:24.947Z,25.10
2018-11-20T07:14:27.852Z,24.40
2018-11-20T07:17:28.375Z,24.43
2018-11-20T07:20:24.340Z,22.13
2018-11-20T07:23:09.989Z,24.00
2018-11-20T07:25:58.227Z,23.27
2018-11-20T07:28:56.447Z,24.93
2018-11-20T07:31:44.539Z,22.63
2018-11-20T07:34:24.065Z,22.20
2018-11-20T07:37:09.327Z,21.40
2018-11-20T07:40:10.348Z,22.97
2018-11-20T07:42:59.361Z,21.33
2018-11-20T07:45:48.317Z,24.10
2018-11-20T07:48:52.660Z,21.77
2018-11-20T07:51:40.596Z,23.47
2018-11-20T07:54:27.874Z,24.20
2018-11-20T07:57:28.802Z,23.83
2018-11-20T08:00:20.590Z,21.37
2018-11-20T08:03:08.110Z,22.73
2018-11-20T08:05:55.569Z,24.80
2018-11-20T08:08:43.278Z,22.67
2018-11-20T08:11:32.268Z,24.33
2018-11-20T08:14:20.128Z,23.13
2018-11-20T08:17:18.242Z,22.80
2018-11-20T08:20:06.012Z,23.00
2018-11-20T08:23:00.806Z,23.03
2018-11-20T08:25:49.942Z,22.67
2018-11-20T08:28:44.790Z,24.57
2018-11-20T08:31:42.894Z,22.97
2018-11-20T08:34:30.740Z,22.93
2018-11-20T08:37:18.881Z,21.77
2018-11-20T08:40:01.991Z,22.60
2018-11-20T08:42:53.763Z,22.03
2018-11-20T08:45:41.765Z,23.33
2018-11-20T08:48:33.748Z,23.60
2018-11-20T08:51:26.612Z,25.30
2018-11-20T08:54:14.177Z,21.33
2018-11-20T08:57:03.137Z,22.20
2018-11-20T09:00:01.201Z,23.60
2018-11-20T09:02:58.976Z,23.13
2018-11-20T09:05:46.431Z,22.00
2018-11-20T09:08:35.369Z,23.83
2018-11-20T09:11:23.275Z,23.13
2018-11-20T09:14:12.224Z,20.83
2018-11-20T09:16:59.802Z,23.20
2018-11-20T09:19:47.701Z,24.00
2018-11-20T09:22:35.393Z,22.57
2018-11-20T09:25:23.580Z,22.90
2018-11-20T09:28:11.744Z,20.27
2018-11-20T09:30:59.514Z,23.97
2018-11-20T09:33:51.272Z,21.53
2018-11-20T09:36:32.376Z,20.23
2018-11-20T09:39:15.362Z,20.30
2018-11-20T09:42:16.485Z,23.13
2018-11-20T09:45:08.480Z,20.93
2018-11-20T09:48:02.394Z,22.67
2018-11-20T09:50:51.573Z,20.47
2018-11-20T09:53:55.776Z,22.23
2018-11-20T09:56:42.289Z,22.53
2018-11-20T09:59:31.253Z,22.53
2018-11-20T10:02:18.889Z,20.80
2018-11-20T10:05:16.678Z,20.40
2018-11-20T10:08:08.762Z,24.77
2018-11-20T10:10:49.549Z,23.07
2018-11-20T10:13:46.251Z,21.37
2018-11-20T10:16:29.968Z,25.67
2018-11-20T10:19:28.279Z,23.30
2018-11-20T10:22:15.770Z,21.67
2018-11-20T10:25:03.762Z,22.80
2018-11-20T10:27:52.921Z,20.10
2018-11-20T10:30:48.132Z,23.07
2018-11-20T10:33:35.874Z,21.43
2018-11-20T10:36:27.922Z,22.07
2018-11-20T10:39:26.082Z,24.90
2018-11-20T10:42:14.111Z,20.13
2018-11-20T10:45:12.016Z,23.57
2018-11-20T10:47:59.834Z,25.47
2018-11-20T10:50:47.814Z,20.70
2018-11-20T10:53:32.104Z,23.10
2018-11-20T10:56:56.123Z,22.93
2018-11-20T10:59:45.530Z,22.13
2018-11-20T11:02:33.266Z,22.67
2018-11-20T11:05:20.399Z,24.00
2018-11-20T11:08:08.407Z,21.43
2018-11-20T11:10:43.430Z,24.20
2018-11-20T11:13:37.659Z,25.10
2018-11-20T11:16:24.590Z,20.00
2018-11-20T11:19:24.848Z,21.43
2018-11-20T11:22:16.412Z,23.03
2018-11-20T11:25:04.835Z,21.90
2018-11-20T11:27:58.812Z,21.80
2018-11-20T11:30:51.493Z,25.13
2018-11-20T11:33:48.983Z,22.87
2018-11-20T11:36:40.238Z,21.80
2018-11-20T11:39:28.689Z,23.10
2018-11-20T11:42:16.914Z,22.57
2018-11-20T11:45:23.604Z,22.83
2018-11-20T11:48:30.273Z,23.27
2018-11-20T11:51:18.215Z,22.93
2018-11-20T11:54:09.183Z,22.33
2018-11-20T11:57:15.680Z,23.37
2018-11-20T12:00:02.685Z,22.97
2018-11-20T12:05:37.114Z,22.27
2018-11-20T12:08:24.201Z,22.83
2018-11-20T12:11:18.176Z,21.00
2018-11-20T12:14:05.809Z,26.20
2018-11-20T12:17:06.445Z,24.30
2018-11-20T12:19:59.795Z,23.63
2018-11-20T12:22:46.621Z,21.53
2018-11-20T12:25:53.320Z,23.70
2018-11-20T12:28:40.371Z,22.43
2018-11-20T12:31:28.773Z,24.10
2018-11-20T12:34:16.763Z,23.40
2018-11-20T12:36:57.652Z,21.73
2018-11-20T12:39:56.409Z,24.93
2018-11-20T12:42:46.306Z,22.03
2018-11-20T12:45:35.976Z,24.80
2018-11-20T12:48:27.119Z,23.80
2018-11-20T12:51:18.054Z,24.27
2018-11-20T12:54:06.238Z,24.83
2018-11-20T12:56:55.563Z,22.67
2018-11-20T12:59:43.875Z,27.60
2018-11-20T13:02:32.627Z,23.93
2018-11-20T13:05:14.105Z,22.80
2018-11-20T13:08:03.706Z,25.43
2018-11-20T13:10:52.036Z,23.77
2018-11-20T13:13:58.800Z,23.00
2018-11-20T13:16:56.228Z,22.03
2018-11-20T13:19:48.696Z,26.63
2018-11-20T13:22:39.724Z,23.73
2018-11-20T13:25:28.546Z,24.07
2018-11-20T13:28:17.878Z,24.13
2018-11-20T13:31:04.790Z,22.33
2018-11-20T13:34:01.906Z,22.33
2018-11-20T13:36:52.996Z,21.43
2018-11-20T13:39:51.883Z,24.50
2018-11-20T13:42:42.969Z,22.97
2018-11-20T13:45:49.420Z,23.30
2018-11-20T13:48:36.411Z,24.27
2018-11-20T13:51:21.899Z,21.97
2018-11-20T13:54:22.302Z,23.10
2018-11-20T13:57:22.684Z,23.43
2018-11-20T14:00:14.417Z,24.13
2018-11-20T14:03:02.652Z,22.30
2018-11-20T14:05:53.626Z,24.30
2018-11-20T14:08:44.817Z,22.10
2018-11-20T14:11:36.581Z,22.30
2018-11-20T14:14:33.314Z,23.87
2018-11-20T14:17:21.555Z,23.97
2018-11-20T14:20:18.536Z,22.23
2018-11-20T14:23:06.568Z,25.93
2018-11-20T14:25:54.840Z,21.70
2018-11-20T14:28:30.981Z,21.97
2018-11-20T14:31:17.160Z,24.07
2018-11-20T14:34:11.137Z,26.47
2018-11-20T14:37:07.562Z,23.57
2018-11-20T14:39:57.074Z,25.93
2018-11-20T14:42:46.446Z,23.90
2018-11-20T14:45:37.405Z,23.50
2018-11-20T14:48:39.096Z,23.47
2018-11-20T14:51:26.312Z,22.67
2018-11-20T14:54:20.439Z,24.47
2018-11-20T14:57:11.550Z,26.50
2018-11-20T14:59:58.503Z,22.97
2018-11-20T15:02:51.827Z,23.43
2018-11-20T15:05:40.125Z,23.47
2018-11-20T15:08:23.117Z,24.70
2018-11-20T15:11:14.433Z,20.90
2018-11-20T15:14:01.685Z,24.13
2018-11-20T15:16:59.257Z,21.17
2018-11-20T15:19:44.853Z,23.17
2018-11-20T15:22:33.099Z,24.97
2018-11-20T15:25:25.685Z,23.20
2018-11-20T15:28:05.026Z,21.50
2018-11-20T15:30:56.194Z,24.53
2018-11-20T15:33:52.406Z,22.10
2018-11-20T15:36:33.410Z,22.50
2018-11-20T15:39:30.356Z,24.70
2018-11-20T15:42:27.473Z,26.37
2018-11-20T15:45:27.690Z,23.73
2018-11-20T15:48:14.948Z,22.30
2018-11-20T15:51:07.519Z,23.43
2018-11-20T15:54:06.673Z,22.00
2018-11-20T15:56:54.050Z,25.40
2018-11-20T15:59:56.088Z,22.53
2018-11-20T16:02:45.780Z,25.60
2018-11-20T16:05:36.140Z,23.87
2018-11-20T16:08:23.294Z,23.50
2018-11-20T16:11:10.254Z,24.53
2018-11-20T16:13:58.576Z,22.00
2018-11-20T16:16:49.891Z,24.73
2018-11-20T16:19:34.749Z,21.73
2018-11-20T16:22:21.480Z,24.23
2018-11-20T16:25:08.668Z,23.17
2018-11-20T16:27:55.860Z,21.97
2018-11-20T16:30:42.856Z,24.50
2018-11-20T16:33:29.866Z,24.30
2018-11-20T16:36:18.561Z,22.20
2018-11-20T16:39:06.450Z,22.77
2018-11-20T16:41:53.176Z,22.50
2018-11-20T16:44:40.336Z,20.93
2018-11-20T16:47:27.396Z,21.67
2018-11-20T16:50:17.872Z,25.03
2018-11-20T16:53:21.022Z,23.80
2018-11-20T16:56:02.526Z,22.17
2018-11-20T16:59:02.395Z,22.97
2018-11-20T17:01:49.893Z,20.97
2018-11-20T17:04:37.916Z,21.10
2018-11-20T17:07:24.984Z,23.37
2018-11-20T17:10:13.019Z,21.33
2018-11-20T17:13:04.470Z,24.27
2018-11-20T17:15:54.433Z,23.20
2018-11-20T17:18:44.452Z,24.53
2018-11-20T17:21:32.956Z,25.67
2018-11-20T17:24:25.228Z,24.20
2018-11-20T17:27:14.217Z,26.77
2018-11-20T17:30:02.323Z,26.30
2018-11-20T17:32:56.329Z,26.07
2018-11-20T17:35:57.053Z,26.10
2018-11-20T17:38:53.511Z,24.20
2018-11-20T17:41:58.327Z,23.13
2018-11-20T17:45:01.623Z,24.10
2018-11-20T17:47:55.028Z,25.30
2018-11-20T17:50:55.593Z,24.00
2018-11-20T17:53:44.935Z,27.03
2018-11-20T17:56:43.962Z,23.97
2018-11-20T17:59:46.641Z,28.60
2018-11-20T18:02:35.149Z,26.50
2018-11-20T18:05:54.282Z,25.77
2018-11-20T18:08:41.706Z,26.77
2018-11-20T18:11:37.993Z,26.20
2018-11-20T18:14:41.756Z,26.13
2018-11-20T18:17:29.084Z,27.80
2018-11-20T18:24:26.498Z,29.70
2018-11-20T18:27:19.234Z,23.97
2018-11-20T18:30:06.242Z,27.17
2018-11-20T18:32:54.608Z,25.70
2018-11-20T18:35:58.136Z,26.27
2018-11-20T18:38:46.961Z,27.27
2018-11-20T18:41:44.546Z,25.40
2018-11-20T18:44:31.456Z,24.80
2018-11-20T18:47:25.849Z,24.37
2018-11-20T18:50:19.798Z,26.57
2018-11-20T18:53:01.276Z,27.50
2018-11-20T18:56:05.587Z,26.33
2018-11-20T18:58:54.362Z,25.50
2018-11-20T19:01:42.377Z,26.90
2018-11-20T19:04:42.818Z,28.47
2018-11-20T19:07:45.144Z,29.73
2018-11-20T19:10:34.287Z,30.90
2018-11-20T19:13:15.570Z,35.50
2018-11-20T19:16:09.785Z,27.20
2018-11-20T19:19:01.471Z,26.23
2018-11-20T19:21:53.159Z,23.67
2018-11-20T19:24:48.947Z,27.83
2018-11-20T19:27:48.820Z,27.10
2018-11-20T19:30:37.361Z,27.20
2018-11-20T19:33:26.644Z,26.10
2018-11-20T19:36:18.210Z,30.13
2018-11-20T19:39:05.479Z,25.63
2018-11-20T19:41:52.866Z,31.60
2018-11-20T19:44:47.059Z,29.83
2018-11-20T19:47:34.253Z,28.23
2018-11-20T19:50:21.379Z,27.20
2018-11-20T19:53:21.987Z,30.37
2018-11-20T19:56:17.196Z,29.80
2018-11-20T19:59:04.776Z,29.67
2018-11-20T20:01:58.843Z,30.83
2018-11-20T20:04:45.762Z,28.83
2018-11-20T20:07:37.053Z,30.73
2018-11-20T20:10:38.791Z,27.27
2018-11-20T20:13:25.973Z,28.73
2018-11-20T20:16:24.940Z,32.30
2018-11-20T20:19:12.383Z,30.83
2018-11-20T20:21:59.594Z,30.57
2018-11-20T20:24:48.137Z,30.30
2018-11-20T20:27:38.409Z,27.20
2018-11-20T20:30:42.922Z,31.50
2018-11-20T20:33:28.230Z,29.23
2018-11-20T20:36:17.467Z,28.10
2018-11-20T20:39:06.810Z,28.20
2018-11-20T20:42:03.844Z,26.73
2018-11-20T20:44:52.495Z,27.47
2018-11-20T20:47:40.776Z,27.60
2018-11-20T20:50:28.275Z,28.97
2018-11-20T20:53:16.577Z,28.53
2018-11-20T20:56:23.282Z,27.70
2018-11-20T20:59:15.140Z,28.83
2018-11-20T21:02:03.508Z,29.30
2018-11-20T21:04:50.424Z,30.70
2018-11-20T21:07:46.752Z,28.57
2018-11-20T21:10:32.424Z,27.60
2018-11-20T21:13:35.810Z,30.43
2018-11-20T21:16:36.244Z,29.27
2018-11-20T21:19:23.626Z,26.40
2018-11-20T21:22:10.672Z,26.50
2018-11-20T21:24:58.884Z,27.73
2018-11-20T21:28:02.734Z,28.67
2018-11-20T21:30:49.893Z,28.30
2018-11-20T21:33:36.708Z,29.10
2018-11-20T21:36:25.390Z,26.57
2018-11-20T21:39:25.790Z,29.73
2018-11-20T21:42:20.959Z,28.37
2018-11-20T21:45:15.551Z,27.50
2018-11-20T21:48:01.425Z,27.10
2018-11-20T21:50:50.822Z,28.27
2018-11-20T21:53:37.598Z,29.53
2018-11-20T21:56:40.993Z,29.53
2018-11-20T21:59:32.438Z,25.07
2018-11-20T22:02:33.653Z,27.23
2018-11-20T22:05:24.472Z,29.77
2018-11-20T22:08:27.902Z,29.07
2018-11-20T22:11:31.588Z,30.17
2018-11-20T22:14:07.395Z,29.37
2018-11-20T22:16:54.663Z,28.63
2018-11-20T22:19:51.960Z,28.23
2018-11-20T22:22:55.300Z,27.07
2018-11-20T22:25:42.171Z,24.57
2018-11-20T22:28:39.954Z,27.30
2018-11-20T22:31:30.971Z,27.47
2018-11-20T22:34:34.817Z,27.47
2018-11-20T22:37:23.089Z,26.50
2018-11-20T22:40:14.004Z,29.47
2018-11-20T22:43:10.804Z,28.27
2018-11-20T22:45:57.721Z,28.70
2018-11-20T22:48:44.942Z,28.60
2018-11-20T22:51:47.425Z,25.93
2018-11-20T22:54:36.188Z,26.67
2018-11-20T22:57:24.606Z,30.13
2018-11-20T23:00:15.778Z,27.33
2018-11-20T23:02:54.974Z,26.20
2018-11-20T23:05:41.004Z,27.20
2018-11-20T23:08:10.097Z,26.70
2018-11-20T23:10:39.365Z,29.73
2018-11-20T23:13:08.430Z,28.90
2018-11-20T23:15:38.392Z,26.73
2018-11-20T23:18:07.825Z,26.20
2018-11-20T23:20:38.109Z,27.27
2018-11-20T23:23:07.179Z,28.70
2018-11-20T23:25:36.382Z,29.77
2018-11-20T23:28:06.000Z,29.80
2018-11-20T23:30:36.507Z,26.17
2018-11-20T23:33:05.946Z,25.13
2018-11-20T23:35:36.234Z,26.43
2018-11-20T23:38:05.652Z,28.80
2018-11-20T23:40:34.820Z,28.17
2018-11-20T23:43:03.875Z,28.70
2018-11-20T23:45:33.539Z,28.53
2018-11-20T23:48:02.613Z,29.77
2018-11-20T23:50:32.910Z,25.93
2018-11-20T23:53:01.973Z,27.20
2018-11-20T23:55:31.166Z,27.20
2018-11-20T23:58:00.266Z,25.73
